sensor_id;sensor_type;location;lat;lon;timestamp;P1;durP1;ratioP1;P2;durP2;ratioP2
3735;SDS011;1883;48.202;16.310;2023-12-20T00:12:38;76.10;;;28.43;;
3735;SDS011;1883;48.202;16.310;2023-12-20T00:15:20;88.80;;;31.53;;
3735;SDS011;1883;48.202;16.310;2023-12-20T00:18:03;70.83;;;28.33;;
3735;SDS011;1883;48.202;16.310;2023-12-20T00:20:59;80.67;;;28.73;;
3735;SDS011;1883;48.202;16.310;2023-12-20T00:26:44;70.37;;;29.27;;
3735;SDS011;1883;48.202;16.310;2023-12-20T00:34:42;75.13;;;30.07;;
3735;SDS011;1883;48.202;16.310;2023-12-20T00:37:11;93.60;;;28.57;;
3735;SDS011;1883;48.202;16.310;2023-12-20T00:39:38;79.73;;;30.50;;
3735;SDS011;1883;48.202;16.310;2023-12-20T00:42:09;73.30;;;29.60;;
3735;SDS011;1883;48.202;16.310;2023-12-20T00:44:36;75.83;;;29.67;;
3735;SDS011;1883;48.202;16.310;2023-12-20T00:47:04;80.27;;;29.80;;
3735;SDS011;1883;48.202;16.310;2023-12-20T00:49:32;71.50;;;29.30;;
3735;SDS011;1883;48.202;16.310;2023-12-20T00:52:24;75.00;;;27.37;;
3735;SDS011;1883;48.202;16.310;2023-12-20T00:55:00;86.33;;;29.23;;
3735;SDS011;1883;48.202;16.310;2023-12-20T00:57:29;83.47;;;30.00;;
3735;SDS011;1883;48.202;16.310;2023-12-20T00:59:56;78.73;;;31.03;;
3735;SDS011;1883;48.202;16.310;2023-12-20T01:02:27;88.13;;;31.03;;
3735;SDS011;1883;48.202;16.310;2023-12-20T01:05:08;79.13;;;29.90;;
3735;SDS011;1883;48.202;16.310;2023-12-20T01:07:45;71.60;;;28.23;;
3735;SDS011;1883;48.202;16.310;2023-12-20T01:10:14;73.67;;;30.20;;
3735;SDS011;1883;48.202;16.310;2023-12-20T01:12:43;81.03;;;29.50;;
3735;SDS011;1883;48.202;16.310;2023-12-20T01:15:15;80.27;;;30.47;;
3735;SDS011;1883;48.202;16.310;2023-12-20T01:17:56;84.53;;;30.40;;
3735;SDS011;1883;48.202;16.310;2023-12-20T01:20:34;73.87;;;29.40;;
3735;SDS011;1883;48.202;16.310;2023-12-20T01:23:13;65.73;;;28.27;;
3735;SDS011;1883;48.202;16.310;2023-12-20T01:25:41;85.03;;;30.47;;
3735;SDS011;1883;48.202;16.310;2023-12-20T01:28:16;90.53;;;28.97;;
3735;SDS011;1883;48.202;16.310;2023-12-20T01:31:05;68.33;;;27.00;;
3735;SDS011;1883;48.202;16.310;2023-12-20T01:33:46;70.37;;;29.50;;
3735;SDS011;1883;48.202;16.310;2023-12-20T01:36:40;70.57;;;27.90;;
3735;SDS011;1883;48.202;16.310;2023-12-20T01:39:18;77.40;;;30.30;;
3735;SDS011;1883;48.202;16.310;2023-12-20T01:41:51;84.13;;;30.47;;
3735;SDS011;1883;48.202;16.310;2023-12-20T01:44:19;78.50;;;31.23;;
3735;SDS011;1883;48.202;16.310;2023-12-20T01:46:46;87.07;;;33.00;;
3735;SDS011;1883;48.202;16.310;2023-12-20T01:49:14;77.07;;;29.23;;
3735;SDS011;1883;48.202;16.310;2023-12-20T01:51:44;80.27;;;29.80;;
3735;SDS011;1883;48.202;16.310;2023-12-20T01:54:28;79.73;;;29.43;;
3735;SDS011;1883;48.202;16.310;2023-12-20T01:56:55;88.57;;;34.00;;
3735;SDS011;1883;48.202;16.310;2023-12-20T01:59:22;82.70;;;29.63;;
3735;SDS011;1883;48.202;16.310;2023-12-20T02:01:51;74.00;;;28.87;;
3735;SDS011;1883;48.202;16.310;2023-12-20T02:04:33;73.80;;;30.20;;
3735;SDS011;1883;48.202;16.310;2023-12-20T02:07:02;83.77;;;31.37;;
3735;SDS011;1883;48.202;16.310;2023-12-20T02:12:23;70.70;;;30.27;;
3735;SDS011;1883;48.202;16.310;2023-12-20T02:14:54;63.50;;;25.67;;
3735;SDS011;1883;48.202;16.310;2023-12-20T02:17:22;54.00;;;23.80;;
3735;SDS011;1883;48.202;16.310;2023-12-20T02:20:07;57.03;;;21.53;;
3735;SDS011;1883;48.202;16.310;2023-12-20T02:22:51;59.27;;;21.83;;
3735;SDS011;1883;48.202;16.310;2023-12-20T02:25:24;53.43;;;21.47;;
3735;SDS011;1883;48.202;16.310;2023-12-20T02:27:51;42.80;;;15.93;;
3735;SDS011;1883;48.202;16.310;2023-12-20T02:30:19;44.20;;;13.97;;
3735;SDS011;1883;48.202;16.310;2023-12-20T02:33:00;36.53;;;12.70;;
3735;SDS011;1883;48.202;16.310;2023-12-20T02:35:30;28.87;;;9.30;;
3735;SDS011;1883;48.202;16.310;2023-12-20T02:37:58;22.00;;;8.50;;
3735;SDS011;1883;48.202;16.310;2023-12-20T02:40:26;13.57;;;4.27;;
3735;SDS011;1883;48.202;16.310;2023-12-20T02:42:53;10.03;;;3.80;;
3735;SDS011;1883;48.202;16.310;2023-12-20T02:45:20;10.53;;;3.30;;
3735;SDS011;1883;48.202;16.310;2023-12-20T02:47:49;7.60;;;2.17;;
3735;SDS011;1883;48.202;16.310;2023-12-20T02:50:15;86.53;;;4.83;;
3735;SDS011;1883;48.202;16.310;2023-12-20T02:52:44;15.20;;;2.47;;
3735;SDS011;1883;48.202;16.310;2023-12-20T02:55:13;7.43;;;2.30;;
3735;SDS011;1883;48.202;16.310;2023-12-20T02:57:40;7.63;;;2.37;;
3735;SDS011;1883;48.202;16.310;2023-12-20T03:00:07;8.30;;;2.87;;
3735;SDS011;1883;48.202;16.310;2023-12-20T03:02:36;11.50;;;2.00;;
3735;SDS011;1883;48.202;16.310;2023-12-20T03:05:04;8.00;;;2.27;;
3735;SDS011;1883;48.202;16.310;2023-12-20T03:07:31;7.07;;;1.83;;
3735;SDS011;1883;48.202;16.310;2023-12-20T03:09:58;14.97;;;2.47;;
3735;SDS011;1883;48.202;16.310;2023-12-20T03:12:26;7.70;;;2.50;;
3735;SDS011;1883;48.202;16.310;2023-12-20T03:14:54;7.50;;;2.63;;
3735;SDS011;1883;48.202;16.310;2023-12-20T03:17:21;6.70;;;2.10;;
3735;SDS011;1883;48.202;16.310;2023-12-20T03:19:48;6.87;;;2.40;;
3735;SDS011;1883;48.202;16.310;2023-12-20T03:22:16;6.77;;;2.17;;
3735;SDS011;1883;48.202;16.310;2023-12-20T03:24:43;8.07;;;2.40;;
3735;SDS011;1883;48.202;16.310;2023-12-20T03:27:10;9.93;;;3.00;;
3735;SDS011;1883;48.202;16.310;2023-12-20T03:29:38;12.60;;;2.80;;
3735;SDS011;1883;48.202;16.310;2023-12-20T03:32:05;12.43;;;4.67;;
3735;SDS011;1883;48.202;16.310;2023-12-20T03:34:34;23.70;;;10.33;;
3735;SDS011;1883;48.202;16.310;2023-12-20T03:37:00;26.00;;;10.03;;
3735;SDS011;1883;48.202;16.310;2023-12-20T03:39:27;24.20;;;9.83;;
3735;SDS011;1883;48.202;16.310;2023-12-20T03:41:55;21.27;;;9.00;;
3735;SDS011;1883;48.202;16.310;2023-12-20T03:44:25;149.03;;;34.10;;
3735;SDS011;1883;48.202;16.310;2023-12-20T03:49:58;24.60;;;10.13;;
3735;SDS011;1883;48.202;16.310;2023-12-20T03:52:27;25.90;;;9.57;;
3735;SDS011;1883;48.202;16.310;2023-12-20T03:54:57;24.07;;;9.10;;
3735;SDS011;1883;48.202;16.310;2023-12-20T03:57:25;21.33;;;8.53;;
3735;SDS011;1883;48.202;16.310;2023-12-20T03:59:54;20.87;;;8.90;;
3735;SDS011;1883;48.202;16.310;2023-12-20T04:02:21;22.60;;;8.23;;
3735;SDS011;1883;48.202;16.310;2023-12-20T04:04:56;20.90;;;9.10;;
3735;SDS011;1883;48.202;16.310;2023-12-20T04:07:27;19.93;;;8.23;;
3735;SDS011;1883;48.202;16.310;2023-12-20T04:09:59;19.80;;;8.57;;
3735;SDS011;1883;48.202;16.310;2023-12-20T04:12:43;22.20;;;10.03;;
3735;SDS011;1883;48.202;16.310;2023-12-20T04:15:11;19.60;;;9.00;;
3735;SDS011;1883;48.202;16.310;2023-12-20T04:17:40;23.20;;;8.90;;
3735;SDS011;1883;48.202;16.310;2023-12-20T04:20:09;22.57;;;9.90;;
3735;SDS011;1883;48.202;16.310;2023-12-20T04:22:50;24.97;;;10.40;;
3735;SDS011;1883;48.202;16.310;2023-12-20T04:25:18;18.60;;;8.33;;
3735;SDS011;1883;48.202;16.310;2023-12-20T04:27:47;24.73;;;7.20;;
3735;SDS011;1883;48.202;16.310;2023-12-20T04:30:17;12.87;;;5.50;;
3735;SDS011;1883;48.202;16.310;2023-12-20T04:32:45;17.37;;;7.40;;
3735;SDS011;1883;48.202;16.310;2023-12-20T04:35:14;18.13;;;7.20;;
3735;SDS011;1883;48.202;16.310;2023-12-20T04:37:53;13.40;;;5.00;;
3735;SDS011;1883;48.202;16.310;2023-12-20T04:40:21;10.23;;;3.60;;
3735;SDS011;1883;48.202;16.310;2023-12-20T04:42:47;10.63;;;3.90;;
3735;SDS011;1883;48.202;16.310;2023-12-20T04:45:14;9.03;;;3.17;;
3735;SDS011;1883;48.202;16.310;2023-12-20T04:47:42;9.67;;;2.97;;
3735;SDS011;1883;48.202;16.310;2023-12-20T04:50:14;13.63;;;3.63;;
3735;SDS011;1883;48.202;16.310;2023-12-20T04:52:40;13.07;;;3.67;;
3735;SDS011;1883;48.202;16.310;2023-12-20T04:55:10;9.87;;;3.60;;
3735;SDS011;1883;48.202;16.310;2023-12-20T04:57:47;10.20;;;2.70;;
3735;SDS011;1883;48.202;16.310;2023-12-20T05:00:14;12.63;;;3.50;;
3735;SDS011;1883;48.202;16.310;2023-12-20T05:02:41;10.50;;;3.03;;
3735;SDS011;1883;48.202;16.310;2023-12-20T05:05:09;8.10;;;2.60;;
3735;SDS011;1883;48.202;16.310;2023-12-20T05:07:52;9.93;;;3.10;;
3735;SDS011;1883;48.202;16.310;2023-12-20T05:10:36;10.13;;;3.60;;
3735;SDS011;1883;48.202;16.310;2023-12-20T05:13:24;11.40;;;3.33;;
3735;SDS011;1883;48.202;16.310;2023-12-20T05:15:52;9.90;;;3.30;;
3735;SDS011;1883;48.202;16.310;2023-12-20T05:18:34;11.43;;;3.07;;
3735;SDS011;1883;48.202;16.310;2023-12-20T05:21:01;9.30;;;2.57;;
3735;SDS011;1883;48.202;16.310;2023-12-20T05:23:30;11.37;;;2.97;;
3735;SDS011;1883;48.202;16.310;2023-12-20T05:26:00;9.93;;;3.70;;
3735;SDS011;1883;48.202;16.310;2023-12-20T05:28:28;10.50;;;3.20;;
3735;SDS011;1883;48.202;16.310;2023-12-20T05:30:57;11.90;;;3.70;;
3735;SDS011;1883;48.202;16.310;2023-12-20T05:33:24;11.60;;;4.10;;
3735;SDS011;1883;48.202;16.310;2023-12-20T05:35:52;10.13;;;3.73;;
3735;SDS011;1883;48.202;16.310;2023-12-20T05:38:19;17.83;;;3.67;;
3735;SDS011;1883;48.202;16.310;2023-12-20T05:40:46;11.53;;;4.13;;
3735;SDS011;1883;48.202;16.310;2023-12-20T05:46:07;10.90;;;3.67;;
3735;SDS011;1883;48.202;16.310;2023-12-20T05:48:36;11.37;;;3.40;;
3735;SDS011;1883;48.202;16.310;2023-12-20T05:51:03;9.53;;;3.03;;
3735;SDS011;1883;48.202;16.310;2023-12-20T05:53:31;9.50;;;3.67;;
3735;SDS011;1883;48.202;16.310;2023-12-20T05:55:59;9.60;;;2.80;;
3735;SDS011;1883;48.202;16.310;2023-12-20T05:58:26;7.23;;;2.63;;
3735;SDS011;1883;48.202;16.310;2023-12-20T06:01:09;9.67;;;3.53;;
3735;SDS011;1883;48.202;16.310;2023-12-20T06:03:40;7.37;;;2.50;;
3735;SDS011;1883;48.202;16.310;2023-12-20T06:06:08;24.03;;;4.00;;
3735;SDS011;1883;48.202;16.310;2023-12-20T06:08:36;10.97;;;2.73;;
3735;SDS011;1883;48.202;16.310;2023-12-20T06:11:04;10.50;;;3.77;;
3735;SDS011;1883;48.202;16.310;2023-12-20T06:13:34;8.03;;;2.90;;
3735;SDS011;1883;48.202;16.310;2023-12-20T06:16:04;8.47;;;3.03;;
3735;SDS011;1883;48.202;16.310;2023-12-20T06:18:33;8.60;;;2.97;;
3735;SDS011;1883;48.202;16.310;2023-12-20T06:21:02;11.30;;;3.60;;
3735;SDS011;1883;48.202;16.310;2023-12-20T06:23:39;8.60;;;3.20;;
3735;SDS011;1883;48.202;16.310;2023-12-20T06:26:48;9.60;;;3.37;;
3735;SDS011;1883;48.202;16.310;2023-12-20T06:33:28;7.43;;;2.20;;
3735;SDS011;1883;48.202;16.310;2023-12-20T06:39:47;9.80;;;2.87;;
3735;SDS011;1883;48.202;16.310;2023-12-20T06:42:28;9.00;;;2.60;;
3735;SDS011;1883;48.202;16.310;2023-12-20T06:44:55;8.10;;;2.80;;
3735;SDS011;1883;48.202;16.310;2023-12-20T06:47:22;11.03;;;3.00;;
3735;SDS011;1883;48.202;16.310;2023-12-20T06:49:51;6.20;;;1.80;;
3735;SDS011;1883;48.202;16.310;2023-12-20T06:52:18;6.67;;;2.23;;
3735;SDS011;1883;48.202;16.310;2023-12-20T06:54:45;8.50;;;2.30;;
3735;SDS011;1883;48.202;16.310;2023-12-20T06:57:14;8.80;;;3.27;;
3735;SDS011;1883;48.202;16.310;2023-12-20T06:59:42;10.83;;;3.17;;
3735;SDS011;1883;48.202;16.310;2023-12-20T07:02:10;10.90;;;3.13;;
3735;SDS011;1883;48.202;16.310;2023-12-20T07:04:41;12.33;;;3.30;;
3735;SDS011;1883;48.202;16.310;2023-12-20T07:07:08;16.30;;;3.03;;
3735;SDS011;1883;48.202;16.310;2023-12-20T07:09:38;11.47;;;3.20;;
3735;SDS011;1883;48.202;16.310;2023-12-20T07:12:09;10.97;;;2.70;;
3735;SDS011;1883;48.202;16.310;2023-12-20T07:14:36;9.63;;;2.83;;
3735;SDS011;1883;48.202;16.310;2023-12-20T07:17:04;9.37;;;2.93;;
3735;SDS011;1883;48.202;16.310;2023-12-20T07:19:33;12.70;;;3.47;;
3735;SDS011;1883;48.202;16.310;2023-12-20T07:21:59;8.50;;;2.47;;
3735;SDS011;1883;48.202;16.310;2023-12-20T07:24:27;11.60;;;3.20;;
3735;SDS011;1883;48.202;16.310;2023-12-20T07:26:54;15.50;;;3.03;;
3735;SDS011;1883;48.202;16.310;2023-12-20T07:29:23;19.90;;;2.83;;
3735;SDS011;1883;48.202;16.310;2023-12-20T07:31:52;8.60;;;3.20;;
3735;SDS011;1883;48.202;16.310;2023-12-20T07:34:19;8.43;;;3.57;;
3735;SDS011;1883;48.202;16.310;2023-12-20T07:36:46;10.70;;;2.93;;
3735;SDS011;1883;48.202;16.310;2023-12-20T07:39:18;13.90;;;2.97;;
3735;SDS011;1883;48.202;16.310;2023-12-20T07:41:46;21.80;;;3.77;;
3735;SDS011;1883;48.202;16.310;2023-12-20T07:44:15;18.47;;;4.00;;
3735;SDS011;1883;48.202;16.310;2023-12-20T07:46:47;13.37;;;3.87;;
3735;SDS011;1883;48.202;16.310;2023-12-20T07:49:18;11.63;;;3.00;;
3735;SDS011;1883;48.202;16.310;2023-12-20T07:51:46;11.70;;;3.73;;
3735;SDS011;1883;48.202;16.310;2023-12-20T07:57:00;3.63;;;0.50;;
3735;SDS011;1883;48.202;16.310;2023-12-20T07:59:32;3.70;;;0.50;;
3735;SDS011;1883;48.202;16.310;2023-12-20T08:02:03;3.60;;;0.50;;
3735;SDS011;1883;48.202;16.310;2023-12-20T08:04:31;4.70;;;1.37;;
3735;SDS011;1883;48.202;16.310;2023-12-20T08:07:00;3.70;;;0.60;;
3735;SDS011;1883;48.202;16.310;2023-12-20T08:09:27;3.67;;;0.60;;
3735;SDS011;1883;48.202;16.310;2023-12-20T08:12:05;3.63;;;0.50;;
3735;SDS011;1883;48.202;16.310;2023-12-20T08:14:52;4.00;;;1.07;;
3735;SDS011;1883;48.202;16.310;2023-12-20T08:17:36;4.40;;;1.17;;
3735;SDS011;1883;48.202;16.310;2023-12-20T08:20:03;16.00;;;4.20;;
3735;SDS011;1883;48.202;16.310;2023-12-20T08:22:32;11.00;;;4.10;;
3735;SDS011;1883;48.202;16.310;2023-12-20T08:25:14;12.30;;;3.37;;
3735;SDS011;1883;48.202;16.310;2023-12-20T08:27:42;14.27;;;3.17;;
3735;SDS011;1883;48.202;16.310;2023-12-20T08:30:18;11.37;;;4.27;;
3735;SDS011;1883;48.202;16.310;2023-12-20T08:35:43;11.37;;;4.20;;
3735;SDS011;1883;48.202;16.310;2023-12-20T08:38:10;12.93;;;4.00;;
3735;SDS011;1883;48.202;16.310;2023-12-20T08:40:38;13.57;;;3.87;;
3735;SDS011;1883;48.202;16.310;2023-12-20T08:43:10;10.37;;;3.70;;
3735;SDS011;1883;48.202;16.310;2023-12-20T08:45:40;8.00;;;2.80;;
3735;SDS011;1883;48.202;16.310;2023-12-20T08:48:25;14.17;;;4.00;;
3735;SDS011;1883;48.202;16.310;2023-12-20T08:50:53;8.87;;;3.10;;
3735;SDS011;1883;48.202;16.310;2023-12-20T08:53:34;12.57;;;4.07;;
3735;SDS011;1883;48.202;16.310;2023-12-20T08:56:05;9.80;;;3.30;;
3735;SDS011;1883;48.202;16.310;2023-12-20T08:58:48;10.07;;;3.03;;
3735;SDS011;1883;48.202;16.310;2023-12-20T09:01:19;9.20;;;3.23;;
3735;SDS011;1883;48.202;16.310;2023-12-20T09:04:06;9.67;;;3.30;;
3735;SDS011;1883;48.202;16.310;2023-12-20T09:06:36;17.17;;;5.50;;
3735;SDS011;1883;48.202;16.310;2023-12-20T09:09:27;12.83;;;3.00;;
3735;SDS011;1883;48.202;16.310;2023-12-20T09:11:57;11.90;;;3.80;;
3735;SDS011;1883;48.202;16.310;2023-12-20T09:14:46;11.50;;;3.60;;
3735;SDS011;1883;48.202;16.310;2023-12-20T09:17:18;12.27;;;4.13;;
3735;SDS011;1883;48.202;16.310;2023-12-20T09:22:32;8.17;;;2.40;;
3735;SDS011;1883;48.202;16.310;2023-12-20T09:25:23;6.87;;;2.07;;
3735;SDS011;1883;48.202;16.310;2023-12-20T09:28:07;12.70;;;2.90;;
3735;SDS011;1883;48.202;16.310;2023-12-20T09:30:51;9.00;;;1.90;;
3735;SDS011;1883;48.202;16.310;2023-12-20T09:33:34;16.90;;;3.40;;
3735;SDS011;1883;48.202;16.310;2023-12-20T11:19:23;6.10;;;2.03;;
3735;SDS011;1883;48.202;16.310;2023-12-20T11:22:06;8.57;;;2.80;;
3735;SDS011;1883;48.202;16.310;2023-12-20T11:24:47;8.20;;;2.10;;
3735;SDS011;1883;48.202;16.310;2023-12-20T11:27:29;6.73;;;2.00;;
3735;SDS011;1883;48.202;16.310;2023-12-20T11:30:21;6.67;;;2.37;;
3735;SDS011;1883;48.202;16.310;2023-12-20T11:33:07;6.87;;;1.80;;
3735;SDS011;1883;48.202;16.310;2023-12-20T11:35:38;6.70;;;1.97;;
3735;SDS011;1883;48.202;16.310;2023-12-20T11:51:40;24.47;;;2.43;;
3735;SDS011;1883;48.202;16.310;2023-12-20T11:57:22;7.20;;;2.07;;
3735;SDS011;1883;48.202;16.310;2023-12-20T12:00:03;8.57;;;2.67;;
3735;SDS011;1883;48.202;16.310;2023-12-20T12:02:54;7.00;;;1.80;;
3735;SDS011;1883;48.202;16.310;2023-12-20T12:08:33;6.73;;;1.77;;
3735;SDS011;1883;48.202;16.310;2023-12-20T12:11:25;5.60;;;1.53;;
3735;SDS011;1883;48.202;16.310;2023-12-20T12:14:09;7.77;;;2.20;;
3735;SDS011;1883;48.202;16.310;2023-12-20T12:16:41;5.43;;;1.50;;
3735;SDS011;1883;48.202;16.310;2023-12-20T12:19:21;23.03;;;1.67;;
3735;SDS011;1883;48.202;16.310;2023-12-20T12:21:52;5.00;;;1.20;;
3735;SDS011;1883;48.202;16.310;2023-12-20T12:24:38;7.80;;;2.00;;
3735;SDS011;1883;48.202;16.310;2023-12-20T12:27:06;5.90;;;1.70;;
3735;SDS011;1883;48.202;16.310;2023-12-20T12:29:36;7.47;;;2.13;;
3735;SDS011;1883;48.202;16.310;2023-12-20T12:32:19;6.90;;;1.60;;
3735;SDS011;1883;48.202;16.310;2023-12-20T12:34:48;5.17;;;1.10;;
3735;SDS011;1883;48.202;16.310;2023-12-20T12:37:36;5.90;;;1.30;;
3735;SDS011;1883;48.202;16.310;2023-12-20T12:40:23;8.23;;;1.97;;
3735;SDS011;1883;48.202;16.310;2023-12-20T12:43:43;5.40;;;1.33;;
3735;SDS011;1883;48.202;16.310;2023-12-20T12:46:25;5.87;;;1.50;;
3735;SDS011;1883;48.202;16.310;2023-12-20T12:49:16;6.40;;;1.90;;
3735;SDS011;1883;48.202;16.310;2023-12-20T12:55:15;13.20;;;2.23;;
3735;SDS011;1883;48.202;16.310;2023-12-20T12:57:59;6.30;;;1.37;;
3735;SDS011;1883;48.202;16.310;2023-12-20T13:01:05;8.13;;;1.80;;
3735;SDS011;1883;48.202;16.310;2023-12-20T13:03:34;14.63;;;1.93;;
3735;SDS011;1883;48.202;16.310;2023-12-20T13:06:16;19.97;;;1.83;;
3735;SDS011;1883;48.202;16.310;2023-12-20T13:08:52;5.90;;;1.80;;
3735;SDS011;1883;48.202;16.310;2023-12-20T13:14:30;5.83;;;1.70;;
3735;SDS011;1883;48.202;16.310;2023-12-20T13:17:06;21.47;;;1.80;;
3735;SDS011;1883;48.202;16.310;2023-12-20T13:19:48;6.30;;;1.67;;
3735;SDS011;1883;48.202;16.310;2023-12-20T13:22:29;6.37;;;1.70;;
3735;SDS011;1883;48.202;16.310;2023-12-20T13:25:10;6.80;;;1.47;;
3735;SDS011;1883;48.202;16.310;2023-12-20T13:27:53;8.90;;;1.83;;
3735;SDS011;1883;48.202;16.310;2023-12-20T13:36:53;5.60;;;1.50;;
3735;SDS011;1883;48.202;16.310;2023-12-20T13:39:34;6.23;;;1.57;;
3735;SDS011;1883;48.202;16.310;2023-12-20T13:42:13;6.60;;;1.70;;
3735;SDS011;1883;48.202;16.310;2023-12-20T13:44:45;4.73;;;1.27;;
3735;SDS011;1883;48.202;16.310;2023-12-20T13:47:26;6.83;;;2.30;;
3735;SDS011;1883;48.202;16.310;2023-12-20T13:56:05;6.00;;;1.53;;
3735;SDS011;1883;48.202;16.310;2023-12-20T13:58:48;9.30;;;2.60;;
3735;SDS011;1883;48.202;16.310;2023-12-20T14:01:34;5.97;;;1.57;;
3735;SDS011;1883;48.202;16.310;2023-12-20T14:04:15;6.90;;;1.93;;
3735;SDS011;1883;48.202;16.310;2023-12-20T14:06:43;6.50;;;1.20;;
3735;SDS011;1883;48.202;16.310;2023-12-20T14:15:26;8.80;;;2.37;;
3735;SDS011;1883;48.202;16.310;2023-12-20T14:18:12;5.73;;;1.50;;
3735;SDS011;1883;48.202;16.310;2023-12-20T14:20:53;5.20;;;1.17;;
3735;SDS011;1883;48.202;16.310;2023-12-20T14:23:22;5.93;;;1.57;;
3735;SDS011;1883;48.202;16.310;2023-12-20T14:26:04;10.50;;;1.90;;
3735;SDS011;1883;48.202;16.310;2023-12-20T14:28:41;7.73;;;1.40;;
3735;SDS011;1883;48.202;16.310;2023-12-20T14:31:25;10.90;;;1.80;;
3735;SDS011;1883;48.202;16.310;2023-12-20T14:33:54;7.17;;;1.80;;
3735;SDS011;1883;48.202;16.310;2023-12-20T14:36:21;5.83;;;1.30;;
3735;SDS011;1883;48.202;16.310;2023-12-20T14:38:51;6.17;;;1.70;;
3735;SDS011;1883;48.202;16.310;2023-12-20T14:41:21;6.90;;;1.67;;
3735;SDS011;1883;48.202;16.310;2023-12-20T14:43:56;5.20;;;1.27;;
3735;SDS011;1883;48.202;16.310;2023-12-20T14:46:37;5.70;;;1.70;;
3735;SDS011;1883;48.202;16.310;2023-12-20T14:49:18;9.30;;;1.70;;
3735;SDS011;1883;48.202;16.310;2023-12-20T14:52:00;7.37;;;2.13;;
3735;SDS011;1883;48.202;16.310;2023-12-20T14:54:27;5.50;;;1.10;;
3735;SDS011;1883;48.202;16.310;2023-12-20T14:57:04;9.30;;;2.80;;
3735;SDS011;1883;48.202;16.310;2023-12-20T15:12:24;6.33;;;1.80;;
3735;SDS011;1883;48.202;16.310;2023-12-20T15:15:08;24.83;;;1.43;;
3735;SDS011;1883;48.202;16.310;2023-12-20T15:17:51;6.03;;;1.50;;
3735;SDS011;1883;48.202;16.310;2023-12-20T15:20:32;5.90;;;1.83;;
3735;SDS011;1883;48.202;16.310;2023-12-20T15:23:13;6.07;;;1.60;;
3735;SDS011;1883;48.202;16.310;2023-12-20T15:34:54;4.90;;;1.40;;
3735;SDS011;1883;48.202;16.310;2023-12-20T15:37:37;5.80;;;1.73;;
3735;SDS011;1883;48.202;16.310;2023-12-20T15:40:20;5.30;;;1.50;;
3735;SDS011;1883;48.202;16.310;2023-12-20T15:42:51;7.27;;;2.13;;
3735;SDS011;1883;48.202;16.310;2023-12-20T15:45:33;8.50;;;1.70;;
3735;SDS011;1883;48.202;16.310;2023-12-20T15:48:12;7.10;;;1.93;;
3735;SDS011;1883;48.202;16.310;2023-12-20T15:50:53;6.27;;;1.93;;
3735;SDS011;1883;48.202;16.310;2023-12-20T15:53:28;7.50;;;2.70;;
3735;SDS011;1883;48.202;16.310;2023-12-20T15:56:16;6.30;;;1.87;;
3735;SDS011;1883;48.202;16.310;2023-12-20T15:59:27;7.77;;;2.37;;
3735;SDS011;1883;48.202;16.310;2023-12-20T16:02:12;5.73;;;1.43;;
3735;SDS011;1883;48.202;16.310;2023-12-20T16:04:58;9.27;;;2.23;;
3735;SDS011;1883;48.202;16.310;2023-12-20T16:07:35;10.17;;;2.70;;
3735;SDS011;1883;48.202;16.310;2023-12-20T16:10:03;8.33;;;2.97;;
3735;SDS011;1883;48.202;16.310;2023-12-20T16:12:49;7.30;;;2.77;;
3735;SDS011;1883;48.202;16.310;2023-12-20T16:15:56;8.83;;;2.60;;
3735;SDS011;1883;48.202;16.310;2023-12-20T16:18:47;7.20;;;2.53;;
3735;SDS011;1883;48.202;16.310;2023-12-20T17:57:09;34.53;;;7.40;;
3735;SDS011;1883;48.202;16.310;2023-12-20T17:59:58;7.63;;;2.30;;
3735;SDS011;1883;48.202;16.310;2023-12-20T18:02:41;10.50;;;3.17;;
3735;SDS011;1883;48.202;16.310;2023-12-20T18:05:13;8.77;;;2.80;;
3735;SDS011;1883;48.202;16.310;2023-12-20T18:11:09;8.20;;;1.90;;
3735;SDS011;1883;48.202;16.310;2023-12-20T18:27:26;9.27;;;2.70;;
3735;SDS011;1883;48.202;16.310;2023-12-20T18:30:30;8.50;;;2.00;;
3735;SDS011;1883;48.202;16.310;2023-12-20T18:33:48;9.63;;;2.27;;
3735;SDS011;1883;48.202;16.310;2023-12-20T18:36:50;8.37;;;1.30;;
3735;SDS011;1883;48.202;16.310;2023-12-20T23:27:40;6.17;;;1.37;;
3735;SDS011;1883;48.202;16.310;2023-12-20T23:30:43;7.50;;;1.73;;
3735;SDS011;1883;48.202;16.310;2023-12-20T23:38:36;4.50;;;1.03;;
